Hayward Executive Airport

KHWD · Californie, États-Unis

METAR anciennes KHWD · Hayward Executive Airport

Tu vois ci-dessous les METAR des derniers jours. Sélectionne une année pour parcourir les METAR plus anciens, à partir de l'année 2007.

15 juin 2024

Temps Code Temps Temp. Vue Base cloud Vent METAR/SPECI
18:54
V
18 °C 10 mi - 250° 250° 8 kt METAR KHWD 160154Z 25008KT 10SM CLR 18/09 A2994 RMK AO2 SLP145 T01830094
17:54
V
19 °C 10 mi - 270° 270° 10 kt METAR KHWD 160054Z 27010KT 10SM CLR 19/10 A2994 RMK AO2 SLP146 T01940100
15:54
V
23 °C 10 mi - 280° 280° 14 kt METAR KHWD 152254Z 28014KT 10SM CLR 23/11 A2994 RMK AO2 SLP148 T02280106
14:54
V
24 °C 10 mi - 260° 260° 11 kt METAR KHWD 152154Z 26011KT 10SM CLR 24/09 A2995 RMK AO2 SLP152 T02390094
13:54
V
23 °C 10 mi - 280° 280° 11 kt METAR KHWD 152054Z 28011KT 10SM CLR 23/09 A2998 RMK AO2 SLP160 T02330094 58014
12:54
V
22 °C 10 mi - 270° 270° 9 kt METAR KHWD 151954Z 27009KT 10SM CLR 22/09 A3000 RMK AO2 SLP167 T02170089
11:54
V
21 °C 10 mi - 280° 280° 8 kt METAR KHWD 151854Z 28008KT 10SM CLR 21/09 A3001 RMK AO2 SLP169 T02060089
10:54
V
19 °C 10 mi - 360° 360° 0 kt METAR KHWD 151754Z 10SM CLR 19/09 A3002 RMK AO2 SLP174 T01940089 10194 20133 58004
09:54
V
18 °C 10 mi - Var Var 4 kt METAR KHWD 151654Z VRB04KT 10SM CLR 18/09 A3002 RMK AO2 SLP176 T01780094
08:54
V
16 °C 10 mi - 220° 220° 5 kt METAR KHWD 151554Z 22005KT 10SM CLR 16/09 A3003 RMK AO2 SLP179 T01610094
07:54
V
15 °C 10 mi - 250° 250° 4 kt METAR KHWD 151454Z 25004KT 10SM CLR 15/09 A3003 RMK AO2 SLP179 T01500094 55000
06:54
V
14 °C 10 mi - 250° 250° 3 kt METAR KHWD 151354Z 25003KT 10SM SCT013 14/10 A3003 RMK AO2 SLP177 T01440100
05:54
V
13 °C 10 mi - 220° 220° 3 kt METAR KHWD 151254Z AUTO 22003KT 10SM FEW012 13/09 A3002 RMK AO2 SLP175 T01330094
04:54
V
14 °C 10 mi - 250° 250° 6 kt METAR KHWD 151154Z AUTO 25006KT 10SM CLR 14/09 A3003 RMK AO2 SLP178 T01390094 10161 20139 56002
03:54
V
14 °C 10 mi - 210° 210° 4 kt METAR KHWD 151054Z AUTO 21004KT 10SM CLR 14/10 A3003 RMK AO2 SLP179 T01390100
02:54
V
14 °C 10 mi - 250° 250° 5 kt METAR KHWD 150954Z AUTO 25005KT 10SM CLR 14/10 A3003 RMK AO2 SLP178 T01390100
01:54
V
14 °C 10 mi - 270° 270° 9 kt METAR KHWD 150854Z AUTO 27009KT 10SM CLR 14/09 A3004 RMK AO2 SLP180 T01440094 56005
00:54
V
15 °C 10 mi - 250° 250° 6 kt METAR KHWD 150754Z AUTO 25006KT 10SM CLR 15/10 A3004 RMK AO2 SLP181 T01500100 402220128

14 juin 2024

Temps Code Temps Temp. Vue Base cloud Vent METAR/SPECI
23:54
V
16 °C 10 mi - 240° 240° 6 kt METAR KHWD 150654Z AUTO 24006KT 10SM CLR 16/09 A3005 RMK AO2 SLP183 T01560094
22:54
V
16 °C 10 mi - 240° 240° 7 kt METAR KHWD 150554Z AUTO 24007KT 10SM CLR 16/10 A3005 RMK AO2 SLP185 T01610100 10211 20156 53006
21:54
V
16 °C 10 mi - 230° 230° 7 kt METAR KHWD 150454Z AUTO 23007KT 10SM CLR 16/09 A3005 RMK AO2 SLP184 T01610094
20:54
V
16 °C 10 mi - 260° 260° 8 kt METAR KHWD 150354Z 26008KT 10SM CLR 16/09 A3003 RMK AO2 SLP180 T01610094
19:54
V
17 °C 10 mi - 240° 240° 10 kt METAR KHWD 150254Z 24010KT 10SM FEW020 17/09 A3003 RMK AO2 SLP180 T01670094 53005
18:54
V
19 °C 10 mi - 270° 270° 7 kt METAR KHWD 150154Z 27007KT 10SM CLR 19/09 A3002 RMK AO2 SLP174 T01940089
17:54
V
19 °C 10 mi - 280° 280° 10 kt METAR KHWD 150054Z 28010KT 10SM CLR 19/08 A3002 RMK AO2 SLP175 T01940083
16:54
V
21 °C 10 mi - 270° 270° 8 - 18 kt METAR KHWD 142354Z 27008G18KT 10SM CLR 21/09 A3002 RMK AO2 SLP174 T02060089 10222 20183 55006
15:54
V
22 °C 10 mi - 290° 290° 7 kt METAR KHWD 142254Z 29007KT 10SM CLR 22/09 A3001 RMK AO2 SLP172 T02170094
14:54
V
22 °C 10 mi - 300° 300° 9 kt METAR KHWD 142154Z 30009KT 10SM CLR 22/10 A3003 RMK AO2 SLP178 T02170100
13:54
V
22 °C 10 mi - 300° 300° 8 kt METAR KHWD 142054Z 30008KT 10SM CLR 22/09 A3004 RMK AO2 SLP180 T02220094 56002
12:54
V
21 °C 10 mi - 280° 280° 6 kt METAR KHWD 141954Z 28006KT 10SM CLR 21/08 A3004 RMK AO2 SLP181 T02110083
11:54
V
20 °C 10 mi - 230° 230° 4 kt METAR KHWD 141854Z 23004KT 10SM CLR 20/09 A3004 RMK AO2 SLP180 T02000089
10:54
V
18 °C 10 mi - 230° 230° 4 kt METAR KHWD 141754Z 23004KT 10SM CLR 18/09 A3004 RMK AO2 SLP183 T01830089 10189 20139 50005
09:54
V
18 °C 10 mi - 250° 250° 5 kt METAR KHWD 141654Z 25005KT 10SM CLR 18/09 A3004 RMK AO2 SLP183 T01780089
08:54
V
16 °C 10 mi - Var Var 4 kt METAR KHWD 141554Z VRB04KT 10SM FEW016 16/10 A3004 RMK AO2 SLP181 T01610100
08:34
V
16 °C 10 mi - 190° 190° 4 kt METAR KHWD 141534Z 19004KT 10SM SCT016 16/10 A3003 RMK AO2 T01610100
08:01
M
15 °C 10 mi 1.600 ft 160° 160° 5 kt METAR KHWD 141501Z 16005KT 10SM BKN016 15/10 A3003 RMK AO2 T01500100
07:54
V
15 °C 10 mi - 130° 130° 3 kt METAR KHWD 141454Z 13003KT 10SM SCT016 15/10 A3003 RMK AO2 SLP178 T01500100 50006
06:54
M
14 °C 10 mi 1.500 ft 190° 190° 4 kt METAR KHWD 141354Z 19004KT 10SM OVC015 14/09 A3003 RMK AO2 SLP179 T01440094
06:25
M
14 °C 10 mi 1.400 ft 160° 160° 5 kt METAR KHWD 141325Z AUTO 16005KT 10SM OVC014 14/10 A3003 RMK AO2 T01390100
05:54
M
14 °C 10 mi 1.500 ft 150° 150° 5 kt METAR KHWD 141254Z AUTO 15005KT 10SM OVC015 14/10 A3002 RMK AO2 SLP176 T01390100
04:54
M
14 °C 10 mi 1.500 ft 250° 250° 5 kt METAR KHWD 141154Z AUTO 25005KT 10SM OVC015 14/10 A3001 RMK AO2 SLP172 T01390100 10139 20128 55003
04:24
M
13 °C 10 mi 1.500 ft 310° 310° 3 kt METAR KHWD 141124Z AUTO 31003KT 10SM BKN015 13/09 A3001 RMK AO2 T01330094
03:54
V
13 °C 10 mi - 270° 270° 3 kt METAR KHWD 141054Z AUTO 27003KT 10SM CLR 13/09 A3001 RMK AO2 SLP171 T01330094
02:54
V
13 °C 10 mi - 360° 360° 0 kt METAR KHWD 140954Z AUTO 00000KT 10SM CLR 13/09 A3001 RMK AO2 SLP170 T01330094
01:54
V
13 °C 10 mi - 320° 320° 3 kt METAR KHWD 140854Z AUTO 32003KT 10SM CLR 13/09 A3002 RMK AO2 SLP175 T01330094 58010
00:54
V
13 °C 10 mi - 300° 300° 3 kt METAR KHWD 140754Z AUTO 30003KT 10SM SCT014 13/09 A3003 RMK AO2 SLP178 T01330094 402000133

13 juin 2024

Temps Code Temps Temp. Vue Base cloud Vent METAR/SPECI
23:54
V
14 °C 10 mi - 290° 290° 5 kt METAR KHWD 140654Z AUTO 29005KT 10SM CLR 14/09 A3004 RMK AO2 SLP183 T01390094
22:54
V
14 °C 10 mi - 280° 280° 9 kt METAR KHWD 140554Z AUTO 28009KT 10SM CLR 14/09 A3005 RMK AO2 SLP184 T01390094 10183 20139 51009
21:54
V
14 °C 10 mi - 280° 280° 10 kt METAR KHWD 140454Z AUTO 28010KT 10SM CLR 14/09 A3005 RMK AO2 SLP185 T01390094
20:54
V
14 °C 9 mi - 290° 290° 10 kt METAR KHWD 140354Z AUTO 29010KT 9SM SCT010 14/09 A3003 RMK AO2 SLP179 T01390094
19:54
V
14 °C 9 mi - 300° 300° 10 kt METAR KHWD 140254Z 30010KT 9SM SCT010 14/09 A3002 RMK AO2 SLP176 T01440094 53014
18:54
V
15 °C 9 mi - 300° 300° 15 - 21 kt METAR KHWD 140154Z 30015G21KT 9SM FEW010 15/09 A3001 RMK AO2 SLP171 T01500094
17:54
V
17 °C 10 mi - 290° 290° 15 kt METAR KHWD 140054Z 29015KT 10SM FEW012 17/10 A2999 RMK AO2 SLP164 T01670100
16:54
V
18 °C 10 mi - 300° 300° 14 - 19 kt METAR KHWD 132354Z 30014G19KT 10SM CLR 18/11 A2998 RMK AO2 SLP161 T01830106 10200 20178 51002
15:54
V
19 °C 10 mi - 290° 290° 14 kt METAR KHWD 132254Z 29014KT 10SM CLR 19/11 A2998 RMK AO2 SLP161 T01890106
14:54
V
19 °C 10 mi - 290° 290° 13 kt METAR KHWD 132154Z 29013KT 10SM CLR 19/10 A2998 RMK AO2 SLP161 T01940100
13:54
V
19 °C 10 mi - 290° 290° 11 kt METAR KHWD 132054Z 29011KT 10SM CLR 19/10 A2998 RMK AO2 SLP159 T01890100 50007
12:54
V
19 °C 10 mi - 300° 300° 14 kt METAR KHWD 131954Z 30014KT 10SM CLR 19/10 A2998 RMK AO2 SLP161 T01940100
11:54
V
19 °C 10 mi - 280° 280° 10 kt METAR KHWD 131854Z 28010KT 10SM CLR 19/11 A2997 RMK AO2 SLP156 T01890106
10:54
V
19 °C 10 mi - 290° 290° 8 kt METAR KHWD 131754Z 29008KT 10SM CLR 19/11 A2995 RMK AO2 SLP152 T01890106 10189 20144 51009
09:54
V
17 °C 10 mi - 260° 260° 9 kt METAR KHWD 131654Z 26009KT 10SM CLR 17/10 A2995 RMK AO2 SLP150 T01720100
07:54
M
16 °C 10 mi 1.100 ft 260° 260° 6 kt METAR KHWD 131454Z 26006KT 10SM OVC011 16/12 A2993 RMK AO2 SLP143 T01560117 53013
06:54
M
16 °C 10 mi 1.100 ft 260° 260° 4 kt METAR KHWD 131354Z 26004KT 10SM OVC011 16/12 A2991 RMK AO2 SLP138 T01560117
05:54
M
15 °C 10 mi 1.200 ft 310° 310° 7 kt METAR KHWD 131254Z AUTO 31007KT 10SM OVC012 15/11 A2990 RMK AO2 SLP132 T01500111
05:09
M
14 °C 10 mi 1.400 ft 290° 290° 9 kt METAR KHWD 131209Z AUTO 29009KT 10SM OVC014 14/11 A2989 RMK AO2 T01440111
04:54
M
14 °C 10 mi 1.500 ft 270° 270° 7 kt METAR KHWD 131154Z AUTO 27007KT 10SM OVC015 14/11 A2989 RMK AO2 SLP130 T01440111 10156 20133 55001
04:43
M
14 °C 10 mi 1.500 ft 360° 360° 0 kt METAR KHWD 131143Z AUTO 00000KT 10SM OVC015 14/10 A2989 RMK AO2 T01390100
04:25
M
14 °C 10 mi 1.400 ft 360° 360° 0 kt METAR KHWD 131125Z AUTO 00000KT 10SM BKN014 14/10 A2989 RMK AO2 T01390100
03:54
V
14 °C 10 mi - 360° 360° 0 kt METAR KHWD 131054Z AUTO 00000KT 10SM FEW013 14/10 A2988 RMK AO2 SLP128 T01390100
02:54
V
16 °C 10 mi - 270° 270° 8 kt METAR KHWD 130954Z AUTO 27008KT 10SM SCT012 16/12 A2989 RMK AO2 SLP129 T01560117
01:54
V
14 °C 10 mi - 010° 010° 5 kt METAR KHWD 130854Z AUTO 01005KT 10SM CLR 14/11 A2989 RMK AO2 SLP130 T01440106 58004
00:54
V
14 °C 10 mi - 340° 340° 3 kt METAR KHWD 130754Z AUTO 34003KT 10SM CLR 14/10 A2990 RMK AO2 SLP133 T01440100 402390144

12 juin 2024

Temps Code Temps Temp. Vue Base cloud Vent METAR/SPECI
23:54
V
16 °C 10 mi - Var Var 4 kt METAR KHWD 130654Z AUTO VRB04KT 10SM CLR 16/11 A2990 RMK AO2 SLP133 T01560111
22:54
V
16 °C 10 mi - 330° 330° 5 kt METAR KHWD 130554Z AUTO 33005KT 10SM CLR 16/11 A2990 RMK AO2 SLP134 T01560106 10217 20156 52008
Signaler les modifications